createdAt,value
2022-11-06T00:00:42.161Z,7.57
2022-11-06T00:03:10.255Z,8.82
2022-11-06T00:06:01.189Z,7.03
2022-11-06T00:08:37.272Z,7.45
2022-11-06T00:11:13.369Z,7.68
2022-11-06T00:13:45.217Z,9.07
2022-11-06T00:16:14.044Z,7.10
2022-11-06T00:18:42.456Z,8.43
2022-11-06T00:21:16.320Z,9.65
2022-11-06T00:23:45.731Z,9.60
2022-11-06T00:26:16.567Z,8.88
2022-11-06T00:28:44.471Z,10.38
2022-11-06T00:31:15.239Z,7.57
2022-11-06T00:33:43.817Z,10.95
2022-11-06T00:36:15.479Z,7.20
2022-11-06T00:38:43.120Z,8.15
2022-11-06T00:41:14.457Z,8.63
2022-11-06T00:43:43.583Z,7.63
2022-11-06T00:46:20.859Z,8.02
2022-11-06T00:48:48.440Z,8.50
2022-11-06T00:51:36.017Z,8.50
2022-11-06T00:54:07.428Z,11.48
2022-11-06T00:56:35.234Z,8.27
2022-11-06T00:59:08.481Z,10.90
2022-11-06T01:01:44.469Z,8.27
2022-11-06T01:04:21.459Z,7.35
2022-11-06T01:06:51.299Z,6.75
2022-11-06T01:09:21.253Z,8.60
2022-11-06T01:14:43.072Z,6.72
2022-11-06T01:17:14.098Z,6.10
2022-11-06T01:19:41.829Z,11.50
2022-11-06T01:22:10.391Z,8.23
2022-11-06T01:24:38.828Z,6.40
2022-11-06T01:29:55.455Z,7.40
2022-11-06T01:32:23.720Z,8.57
2022-11-06T01:34:51.888Z,10.05
2022-11-06T01:37:19.478Z,8.00
2022-11-06T01:39:48.938Z,6.82
2022-11-06T01:42:19.333Z,7.18
2022-11-06T01:45:16.033Z,8.80
2022-11-06T01:47:45.277Z,5.47
2022-11-06T01:50:15.845Z,4.57
2022-11-06T01:52:45.622Z,7.05
2022-11-06T01:55:27.386Z,5.78
2022-11-06T01:57:56.101Z,5.88
2022-11-06T02:00:24.184Z,7.25
2022-11-06T02:02:51.913Z,6.53
2022-11-06T02:05:19.588Z,5.78
2022-11-06T02:07:47.468Z,4.95
2022-11-06T02:10:15.478Z,4.60
2022-11-06T02:13:01.737Z,4.22
2022-11-06T02:15:52.357Z,7.65
2022-11-06T02:18:29.089Z,8.00
2022-11-06T02:21:18.225Z,5.75
2022-11-06T02:24:15.148Z,5.45
2022-11-06T02:26:56.095Z,4.95
2022-11-06T02:29:33.465Z,5.15
2022-11-06T02:32:07.441Z,4.78
2022-11-06T02:34:39.591Z,3.22
2022-11-06T02:37:26.694Z,5.68
2022-11-06T02:39:57.374Z,3.28
2022-11-06T02:42:27.238Z,5.22
2022-11-06T02:44:57.263Z,3.03
2022-11-06T02:47:29.039Z,3.00
2022-11-06T02:50:03.552Z,3.80
2022-11-06T02:52:45.437Z,9.82
2022-11-06T02:55:19.145Z,4.75
2022-11-06T02:57:53.091Z,6.00
2022-11-06T03:00:22.580Z,4.72
2022-11-06T03:03:09.586Z,5.68
2022-11-06T03:05:44.503Z,4.65
2022-11-06T03:08:24.412Z,7.60
2022-11-06T03:11:05.045Z,3.22
2022-11-06T03:13:57.342Z,2.80
2022-11-06T03:16:39.726Z,6.13
2022-11-06T03:19:23.117Z,3.88
2022-11-06T03:22:08.734Z,4.70
2022-11-06T03:24:38.898Z,7.35
2022-11-06T03:27:23.388Z,4.55
2022-11-06T03:30:00.397Z,8.75
2022-11-06T03:32:34.119Z,6.55
2022-11-06T03:35:06.693Z,6.82
2022-11-06T03:37:40.262Z,6.50
2022-11-06T03:40:13.635Z,6.68
2022-11-06T03:42:42.726Z,8.45
2022-11-06T03:45:15.822Z,6.10
2022-11-06T03:47:48.531Z,9.68
2022-11-06T03:50:22.234Z,4.18
2022-11-06T03:53:01.572Z,11.10
2022-11-06T03:55:33.776Z,8.65
2022-11-06T03:58:09.490Z,12.73
2022-11-06T04:00:40.772Z,7.43
2022-11-06T04:03:22.481Z,10.50
2022-11-06T04:06:00.608Z,13.43
2022-11-06T04:08:51.513Z,14.25
2022-11-06T04:11:43.010Z,11.00
2022-11-06T04:14:12.991Z,8.73
2022-11-06T04:16:45.874Z,9.63
2022-11-06T04:19:17.473Z,10.52
2022-11-06T04:22:23.322Z,10.95
2022-11-06T04:25:36.810Z,11.60
2022-11-06T04:28:37.853Z,13.98
2022-11-06T04:31:11.194Z,13.88
2022-11-06T04:33:57.445Z,16.38
2022-11-06T04:36:49.057Z,12.60
2022-11-06T04:39:42.772Z,5.60
2022-11-06T04:42:44.898Z,12.68
2022-11-06T04:45:18.453Z,10.32
2022-11-06T04:47:47.685Z,16.10
2022-11-06T04:50:17.772Z,18.98
2022-11-06T04:52:46.657Z,13.02
2022-11-06T04:55:16.265Z,12.13
2022-11-06T04:57:46.758Z,10.88
2022-11-06T05:00:15.191Z,10.32
2022-11-06T05:02:42.748Z,11.95
2022-11-06T05:05:10.285Z,15.57
2022-11-06T05:07:39.248Z,14.35
2022-11-06T05:10:06.838Z,17.50
2022-11-06T05:12:34.246Z,16.70
2022-11-06T05:15:01.699Z,19.80
2022-11-06T05:17:35.280Z,16.73
2022-11-06T05:20:04.819Z,14.93
2022-11-06T05:22:50.900Z,15.75
2022-11-06T05:25:18.351Z,17.17
2022-11-06T05:27:48.699Z,12.07
2022-11-06T05:30:16.345Z,14.18
2022-11-06T05:32:43.712Z,18.15
2022-11-06T05:35:12.183Z,15.55
2022-11-06T05:37:39.529Z,12.30
2022-11-06T05:40:11.013Z,17.15
2022-11-06T05:42:43.861Z,15.18
2022-11-06T05:45:12.702Z,18.75
2022-11-06T05:47:42.763Z,14.80
2022-11-06T05:50:12.578Z,18.00
2022-11-06T05:52:40.029Z,15.80
2022-11-06T05:55:13.268Z,19.65
2022-11-06T05:57:42.553Z,13.38
2022-11-06T06:00:11.723Z,15.70
2022-11-06T06:02:39.476Z,17.52
2022-11-06T06:05:10.566Z,14.38
2022-11-06T06:07:38.068Z,17.33
2022-11-06T06:10:06.055Z,17.05
2022-11-06T06:12:33.875Z,20.33
2022-11-06T06:15:01.291Z,26.98
2022-11-06T06:17:30.026Z,24.33
2022-11-06T06:19:57.375Z,25.10
2022-11-06T06:22:25.947Z,18.77
2022-11-06T06:24:53.490Z,28.48
2022-11-06T06:27:21.282Z,24.35
2022-11-06T06:29:48.751Z,21.73
2022-11-06T06:32:16.707Z,24.58
2022-11-06T06:34:44.328Z,25.98
2022-11-06T06:37:14.353Z,33.05
2022-11-06T06:39:44.666Z,12.68
2022-11-06T06:42:12.054Z,23.98
2022-11-06T06:44:39.412Z,25.58
2022-11-06T06:47:07.094Z,21.00
2022-11-06T06:49:36.983Z,15.00
2022-11-06T06:52:04.864Z,18.38
2022-11-06T06:54:33.436Z,16.67
2022-11-06T06:57:01.091Z,22.77
2022-11-06T06:59:29.229Z,12.18
2022-11-06T07:01:58.032Z,22.63
2022-11-06T07:04:25.678Z,22.40
2022-11-06T07:09:38.425Z,23.55
2022-11-06T07:12:05.947Z,21.85
2022-11-06T07:14:33.303Z,18.70
2022-11-06T07:17:00.828Z,17.83
2022-11-06T07:19:28.200Z,20.77
2022-11-06T07:21:55.939Z,24.90
2022-11-06T07:24:23.699Z,18.15
2022-11-06T07:26:51.223Z,24.20
2022-11-06T07:29:18.725Z,22.30
2022-11-06T07:31:46.175Z,14.32
2022-11-06T07:34:13.998Z,24.85
2022-11-06T07:36:41.707Z,24.48
2022-11-06T07:39:09.178Z,20.85
2022-11-06T07:41:37.542Z,22.98
2022-11-06T07:44:05.645Z,19.90
2022-11-06T07:46:33.717Z,19.35
2022-11-06T07:49:02.367Z,17.77
2022-11-06T07:51:30.317Z,15.60
2022-11-06T07:53:57.872Z,14.90
2022-11-06T07:56:25.510Z,24.50
2022-11-06T07:58:52.975Z,15.38
2022-11-06T08:01:21.298Z,19.90
2022-11-06T08:03:48.771Z,14.70
2022-11-06T08:06:16.508Z,17.05
2022-11-06T08:08:45.205Z,15.48
2022-11-06T08:11:13.431Z,20.83
2022-11-06T08:13:41.063Z,17.88
2022-11-06T08:16:11.484Z,21.02
2022-11-06T08:18:39.768Z,17.42
2022-11-06T08:21:08.307Z,15.93
2022-11-06T08:23:36.675Z,13.57
2022-11-06T08:26:07.605Z,11.50
2022-11-06T08:28:38.381Z,15.40
2022-11-06T08:31:07.431Z,17.05
2022-11-06T08:33:37.062Z,17.08
2022-11-06T08:36:06.705Z,16.65
2022-11-06T08:38:34.399Z,11.57
2022-11-06T08:41:10.206Z,18.02
2022-11-06T08:43:38.998Z,8.93
2022-11-06T08:46:08.365Z,12.00
2022-11-06T08:48:36.518Z,16.70
2022-11-06T08:51:13.945Z,9.32
2022-11-06T08:53:51.958Z,14.55
2022-11-06T08:56:20.417Z,10.73
2022-11-06T08:58:51.595Z,13.63
2022-11-06T09:01:24.645Z,11.82
2022-11-06T09:03:52.256Z,10.70
2022-11-06T09:06:19.778Z,12.40
2022-11-06T09:08:47.239Z,16.45
2022-11-06T09:11:14.712Z,12.50
2022-11-06T09:13:42.422Z,12.25
2022-11-06T09:16:15.513Z,11.90
2022-11-06T09:18:44.391Z,11.18
2022-11-06T09:21:11.894Z,8.95
2022-11-06T09:23:39.261Z,11.77
2022-11-06T09:26:06.618Z,11.40
2022-11-06T09:28:34.355Z,16.90
2022-11-06T09:31:02.684Z,11.15
2022-11-06T09:33:31.131Z,13.55
2022-11-06T09:35:58.961Z,9.55
2022-11-06T09:38:26.454Z,13.10
2022-11-06T09:40:58.070Z,8.07
2022-11-06T09:44:09.282Z,11.60
2022-11-06T09:46:44.075Z,13.90
2022-11-06T09:49:20.482Z,14.82
2022-11-06T09:52:16.601Z,8.60
2022-11-06T09:54:53.501Z,10.32
2022-11-06T09:57:57.158Z,13.80
2022-11-06T10:00:24.997Z,5.97
2022-11-06T10:03:10.977Z,12.95
2022-11-06T10:05:41.458Z,10.90
2022-11-06T10:08:22.758Z,12.85
2022-11-06T10:11:08.425Z,9.57
2022-11-06T10:13:58.356Z,7.93
2022-11-06T10:16:44.069Z,10.02
2022-11-06T10:19:32.685Z,11.23
2022-11-06T10:22:15.885Z,9.02
2022-11-06T10:24:52.698Z,12.85
2022-11-06T10:27:28.170Z,12.20
2022-11-06T10:30:15.919Z,6.20
2022-11-06T10:32:55.759Z,8.45
2022-11-06T10:35:29.764Z,13.35
2022-11-06T10:38:10.573Z,9.70
2022-11-06T10:40:42.116Z,9.73
2022-11-06T10:43:27.381Z,6.88
2022-11-06T10:46:21.421Z,8.50
2022-11-06T10:49:12.411Z,9.70
2022-11-06T10:52:36.647Z,8.95
2022-11-06T10:55:28.791Z,9.55
2022-11-06T10:58:02.958Z,6.55
2022-11-06T11:00:31.641Z,12.52
2022-11-06T11:03:02.271Z,11.20
2022-11-06T11:05:41.525Z,10.80
2022-11-06T11:08:57.252Z,8.10
2022-11-06T11:11:26.965Z,7.75
2022-11-06T11:13:59.472Z,8.63
2022-11-06T11:16:28.436Z,12.15
2022-11-06T11:19:16.152Z,14.13
2022-11-06T11:21:59.613Z,11.18
2022-11-06T11:24:27.901Z,11.50
2022-11-06T11:27:17.876Z,13.63
2022-11-06T11:29:52.688Z,7.88
2022-11-06T11:32:23.790Z,4.80
2022-11-06T11:34:56.817Z,8.05
2022-11-06T11:37:36.240Z,8.20
2022-11-06T11:40:39.137Z,11.27
2022-11-06T11:43:28.723Z,5.03
2022-11-06T11:48:59.005Z,10.20
2022-11-06T11:52:24.614Z,9.38
2022-11-06T11:55:21.380Z,4.43
2022-11-06T11:58:00.788Z,7.25
2022-11-06T12:00:29.723Z,6.90
2022-11-06T12:03:02.808Z,12.15
2022-11-06T12:05:37.670Z,5.95
2022-11-06T12:11:03.690Z,5.85
2022-11-06T12:13:31.209Z,9.30
2022-11-06T12:16:10.898Z,7.50
2022-11-06T12:18:45.389Z,6.18
2022-11-06T12:21:21.905Z,5.57
2022-11-06T12:24:10.532Z,12.88
2022-11-06T12:27:29.540Z,6.82
2022-11-06T12:29:56.904Z,6.18
2022-11-06T12:33:17.576Z,7.20
2022-11-06T12:36:00.219Z,3.22
2022-11-06T12:38:41.790Z,6.97
2022-11-06T12:41:29.719Z,10.35
2022-11-06T12:43:58.882Z,6.18
2022-11-06T12:46:47.584Z,9.15
2022-11-06T12:49:44.340Z,7.47
2022-11-06T12:52:14.477Z,13.68
2022-11-06T12:55:12.679Z,4.50
2022-11-06T12:57:58.713Z,10.48
2022-11-06T13:00:36.603Z,8.70
2022-11-06T13:03:27.392Z,5.28
2022-11-06T13:06:16.279Z,6.10
2022-11-06T13:08:53.167Z,10.32
2022-11-06T13:11:46.741Z,7.00
2022-11-06T13:14:46.533Z,13.18
2022-11-06T13:17:31.412Z,11.90
2022-11-06T13:20:17.802Z,5.00
2022-11-06T13:22:50.134Z,11.35
2022-11-06T13:25:25.221Z,8.10
2022-11-06T13:28:19.424Z,8.20
2022-11-06T13:30:47.890Z,8.57
2022-11-06T13:33:20.874Z,5.78
2022-11-06T13:35:48.547Z,6.57
2022-11-06T13:38:52.897Z,9.65
2022-11-06T13:41:29.808Z,8.63
2022-11-06T13:44:05.231Z,12.65
2022-11-06T13:46:42.334Z,6.68
2022-11-06T13:49:15.408Z,11.80
2022-11-06T13:51:59.827Z,9.55
2022-11-06T13:54:30.250Z,9.95
2022-11-06T13:57:36.649Z,9.82
2022-11-06T14:00:20.712Z,7.65
2022-11-06T14:02:59.896Z,7.70
2022-11-06T14:05:46.584Z,9.73
2022-11-06T14:08:25.902Z,8.77
2022-11-06T14:11:31.064Z,6.20
2022-11-06T14:14:03.372Z,7.18
2022-11-06T14:16:33.766Z,7.63
2022-11-06T14:19:14.232Z,9.88
2022-11-06T14:21:47.680Z,7.95
2022-11-06T14:24:36.637Z,10.57
2022-11-06T14:27:13.667Z,4.20
2022-11-06T14:29:54.823Z,6.63
2022-11-06T14:32:31.281Z,9.48
2022-11-06T14:35:31.206Z,8.80
2022-11-06T14:38:32.607Z,8.38
2022-11-06T14:41:00.662Z,7.38
2022-11-06T14:43:30.099Z,8.98
2022-11-06T14:46:03.243Z,10.30
2022-11-06T14:48:43.610Z,9.13
2022-11-06T14:51:12.417Z,7.07
2022-11-06T14:53:51.745Z,5.75
2022-11-06T14:56:28.916Z,5.78
2022-11-06T14:59:28.840Z,8.45
2022-11-06T15:02:01.175Z,6.68
2022-11-06T15:04:31.776Z,7.72
2022-11-06T15:07:09.858Z,4.28
2022-11-06T15:09:41.623Z,6.88
2022-11-06T15:12:09.462Z,6.88
2022-11-06T15:14:37.014Z,7.15
2022-11-06T15:17:11.673Z,9.43
2022-11-06T15:19:46.855Z,5.68
2022-11-06T15:22:49.052Z,11.57
2022-11-06T15:25:16.338Z,7.35
2022-11-06T15:28:04.341Z,7.72
2022-11-06T15:31:04.377Z,8.27
2022-11-06T15:33:48.501Z,6.72
2022-11-06T15:36:19.728Z,8.70
2022-11-06T15:38:47.142Z,14.45
2022-11-06T15:41:19.414Z,6.70
2022-11-06T15:43:49.408Z,11.65
2022-11-06T15:46:29.141Z,11.73
2022-11-06T15:49:17.698Z,8.57
2022-11-06T15:52:02.070Z,9.15
2022-11-06T15:54:44.077Z,10.45
2022-11-06T15:57:18.847Z,9.85
2022-11-06T15:59:46.601Z,10.40
2022-11-06T16:02:23.516Z,12.75
2022-11-06T16:04:52.203Z,11.90
2022-11-06T16:07:20.148Z,11.45
2022-11-06T16:09:48.316Z,13.90
2022-11-06T16:12:18.287Z,7.43
2022-11-06T16:14:46.070Z,10.10
2022-11-06T16:17:25.605Z,5.95
2022-11-06T16:19:56.055Z,9.75
2022-11-06T16:22:30.326Z,7.15
2022-11-06T16:25:07.866Z,11.93
2022-11-06T16:27:37.538Z,10.88
2022-11-06T16:30:06.844Z,12.68
2022-11-06T16:32:41.185Z,7.70
2022-11-06T16:35:32.387Z,6.32
2022-11-06T16:38:41.433Z,11.00
2022-11-06T16:41:39.686Z,8.02
2022-11-06T16:44:19.485Z,4.32
2022-11-06T16:47:05.284Z,7.13
2022-11-06T16:49:41.495Z,14.43
2022-11-06T16:52:29.783Z,11.13
2022-11-06T16:55:06.741Z,9.05
2022-11-06T16:57:41.977Z,10.32
2022-11-06T17:00:21.338Z,10.45
2022-11-06T17:03:03.496Z,7.65
2022-11-06T17:05:34.087Z,6.40
2022-11-06T17:08:18.198Z,4.97
2022-11-06T17:10:47.289Z,5.20
2022-11-06T17:13:32.554Z,8.15
2022-11-06T17:16:05.335Z,6.80
2022-11-06T17:18:38.674Z,10.63
2022-11-06T17:21:11.943Z,5.78
2022-11-06T17:23:39.807Z,5.22
2022-11-06T17:26:17.481Z,8.80
2022-11-06T17:28:45.521Z,4.90
2022-11-06T17:31:14.655Z,6.63
2022-11-06T17:33:43.509Z,7.40
2022-11-06T17:36:18.756Z,10.20
2022-11-06T17:38:46.914Z,6.25
2022-11-06T17:41:30.020Z,5.68
2022-11-06T17:44:03.363Z,7.00
2022-11-06T17:46:36.773Z,5.38
2022-11-06T17:49:04.980Z,5.15
2022-11-06T17:51:50.645Z,7.65
2022-11-06T17:54:20.125Z,6.53
2022-11-06T17:56:47.901Z,9.00
2022-11-06T17:59:15.783Z,4.65
2022-11-06T18:01:43.730Z,5.53
2022-11-06T18:04:11.390Z,6.60
2022-11-06T18:06:39.189Z,7.90
2022-11-06T18:09:08.302Z,5.75
2022-11-06T18:11:35.944Z,13.07
2022-11-06T18:14:04.063Z,9.40
2022-11-06T18:16:33.490Z,7.40
2022-11-06T18:19:01.623Z,6.15
2022-11-06T18:21:29.155Z,7.50
2022-11-06T18:23:56.797Z,8.15
2022-11-06T18:26:24.647Z,10.18
2022-11-06T18:28:52.583Z,7.15
2022-11-06T18:31:20.654Z,7.13
2022-11-06T18:33:48.534Z,9.10
2022-11-06T18:36:16.558Z,6.80
2022-11-06T18:38:44.354Z,9.02
2022-11-06T18:41:17.401Z,7.95
2022-11-06T18:43:47.854Z,6.20
2022-11-06T18:46:17.248Z,7.90
2022-11-06T18:48:45.606Z,6.38
2022-11-06T18:51:32.627Z,5.32
2022-11-06T18:54:05.081Z,6.68
2022-11-06T18:56:34.178Z,7.65
2022-11-06T18:59:02.462Z,7.97
2022-11-06T19:01:30.478Z,8.40
2022-11-06T19:03:58.097Z,4.95
2022-11-06T19:06:25.682Z,8.98
2022-11-06T19:08:53.493Z,8.60
2022-11-06T19:11:21.216Z,9.00
2022-11-06T19:13:48.943Z,12.55
2022-11-06T19:16:19.648Z,10.00
2022-11-06T19:21:30.732Z,5.28
2022-11-06T19:24:03.976Z,10.95
2022-11-06T19:26:34.247Z,8.05
2022-11-06T19:29:02.452Z,6.38
2022-11-06T19:31:30.644Z,9.48
2022-11-06T19:33:59.601Z,7.85
2022-11-06T19:36:28.224Z,11.20
2022-11-06T19:38:58.586Z,12.00
2022-11-06T19:41:27.592Z,6.55
2022-11-06T19:43:55.575Z,11.25
2022-11-06T19:46:27.136Z,8.00
2022-11-06T19:48:57.199Z,6.68
2022-11-06T19:51:26.007Z,9.38
2022-11-06T19:53:54.262Z,10.50
2022-11-06T19:56:22.778Z,8.48
2022-11-06T19:58:52.034Z,7.68
2022-11-06T20:01:20.791Z,9.40
2022-11-06T20:03:48.422Z,6.38
2022-11-06T20:06:16.712Z,9.75
2022-11-06T20:08:48.033Z,7.32
2022-11-06T20:11:16.140Z,6.18
2022-11-06T20:13:45.359Z,5.75
2022-11-06T20:16:18.893Z,5.10
2022-11-06T20:18:55.658Z,6.78
2022-11-06T20:21:26.383Z,5.97
2022-11-06T20:23:54.911Z,5.60
2022-11-06T20:26:23.195Z,6.72
2022-11-06T20:28:51.573Z,8.15
2022-11-06T20:31:19.660Z,6.45
2022-11-06T20:33:48.028Z,8.63
2022-11-06T20:36:23.269Z,7.15
2022-11-06T20:38:57.107Z,3.95
2022-11-06T20:41:25.172Z,7.53
2022-11-06T20:43:53.465Z,7.30
2022-11-06T20:46:22.258Z,6.57
2022-11-06T20:48:50.438Z,5.95
2022-11-06T20:51:24.718Z,4.47
2022-11-06T20:53:52.800Z,10.65
2022-11-06T20:56:22.567Z,6.38
2022-11-06T20:58:55.074Z,5.75
2022-11-06T21:01:27.770Z,10.07
2022-11-06T21:03:57.258Z,6.20
2022-11-06T21:06:26.660Z,7.28
2022-11-06T21:08:54.438Z,8.93
2022-11-06T21:11:24.726Z,8.82
2022-11-06T21:13:55.278Z,10.68
2022-11-06T21:16:24.909Z,14.07
2022-11-06T21:18:53.050Z,12.15
2022-11-06T21:21:23.554Z,8.18
2022-11-06T21:23:52.260Z,11.70
2022-11-06T21:26:25.312Z,14.27
2022-11-06T21:28:53.106Z,9.73
2022-11-06T21:31:23.448Z,10.95
2022-11-06T21:33:52.582Z,10.00
2022-11-06T21:36:23.051Z,6.68
2022-11-06T21:38:50.854Z,16.50
2022-11-06T21:41:24.385Z,8.32
2022-11-06T21:43:52.388Z,16.05
2022-11-06T21:46:20.105Z,10.50
2022-11-06T21:48:48.573Z,9.45
2022-11-06T21:51:21.431Z,12.93
2022-11-06T21:54:08.423Z,9.70
2022-11-06T21:56:37.226Z,9.30
2022-11-06T21:59:07.581Z,6.85
2022-11-06T22:01:35.529Z,4.28
2022-11-06T22:04:03.746Z,8.32
2022-11-06T22:06:31.881Z,7.95
2022-11-06T22:09:01.470Z,13.88
2022-11-06T22:11:35.194Z,12.75
2022-11-06T22:14:07.465Z,9.85
2022-11-06T22:16:38.256Z,12.50
2022-11-06T22:19:08.053Z,11.68
2022-11-06T22:21:37.180Z,6.53
2022-11-06T22:24:07.098Z,5.30
2022-11-06T22:26:36.038Z,6.82
2022-11-06T22:29:07.410Z,8.68
2022-11-06T22:31:35.491Z,6.78
2022-11-06T22:34:03.665Z,4.78
2022-11-06T22:36:31.631Z,6.53
2022-11-06T22:39:02.944Z,10.60
2022-11-06T22:41:30.474Z,7.95
2022-11-06T22:43:59.778Z,11.18
2022-11-06T22:46:29.543Z,7.80
2022-11-06T22:49:00.606Z,5.90
2022-11-06T22:51:31.970Z,7.82
2022-11-06T22:54:01.453Z,4.53
2022-11-06T22:56:37.299Z,8.95
2022-11-06T22:59:10.515Z,9.85
2022-11-06T23:01:43.510Z,5.35
2022-11-06T23:04:17.231Z,3.58
2022-11-06T23:06:46.751Z,9.82
2022-11-06T23:09:18.775Z,7.32
2022-11-06T23:11:49.153Z,6.88
2022-11-06T23:17:01.813Z,12.20
2022-11-06T23:22:34.408Z,8.60
2022-11-06T23:27:37.065Z,9.30
2022-11-06T23:30:07.053Z,3.53
2022-11-06T23:32:43.009Z,5.25
2022-11-06T23:35:14.191Z,6.55
2022-11-06T23:37:42.888Z,7.72
2022-11-06T23:40:33.674Z,8.88
2022-11-06T23:43:01.350Z,6.45
2022-11-06T23:45:55.792Z,12.27
2022-11-06T23:48:25.782Z,6.05
2022-11-06T23:51:01.205Z,7.93
2022-11-06T23:53:39.449Z,6.15
2022-11-06T23:56:22.936Z,13.55
2022-11-06T23:58:52.899Z,8.70
